createdAt,value
2024-03-26T00:01:16.651Z,6.41
2024-03-26T00:03:21.100Z,6.41
2024-03-26T00:05:25.479Z,6.38
2024-03-26T00:07:29.845Z,6.39
2024-03-26T00:09:37.541Z,6.37
2024-03-26T00:11:42.151Z,6.35
2024-03-26T00:13:46.816Z,6.36
2024-03-26T00:15:51.243Z,6.34
2024-03-26T00:17:55.599Z,6.31
2024-03-26T00:19:59.957Z,6.29
2024-03-26T00:22:05.833Z,6.28
2024-03-26T00:24:10.461Z,6.25
2024-03-26T00:26:14.815Z,6.23
2024-03-26T00:28:19.201Z,6.19
2024-03-26T00:30:23.782Z,6.17
2024-03-26T00:32:28.126Z,6.14
2024-03-26T00:34:32.485Z,6.11
2024-03-26T00:36:36.901Z,6.09
2024-03-26T00:38:41.336Z,6.08
2024-03-26T00:40:48.574Z,6.06
2024-03-26T00:42:52.955Z,6.05
2024-03-26T00:44:57.288Z,6.03
2024-03-26T00:47:01.647Z,6.02
2024-03-26T00:49:06.208Z,5.99
2024-03-26T00:51:10.750Z,5.97
2024-03-26T00:53:15.469Z,5.96
2024-03-26T00:55:19.870Z,5.95
2024-03-26T00:57:24.219Z,5.93
2024-03-26T00:59:28.739Z,5.90
2024-03-26T01:01:33.137Z,5.88
2024-03-26T01:03:37.867Z,5.90
2024-03-26T01:05:50.949Z,5.91
2024-03-26T01:07:55.318Z,5.93
2024-03-26T01:09:59.728Z,5.92
2024-03-26T01:12:04.214Z,5.94
2024-03-26T01:14:08.867Z,5.94
2024-03-26T01:16:13.221Z,5.96
2024-03-26T01:18:18.804Z,5.97
2024-03-26T01:20:23.223Z,5.98
2024-03-26T01:22:30.746Z,5.96
2024-03-26T01:24:35.165Z,5.99
2024-03-26T01:26:39.526Z,5.97
2024-03-26T01:28:45.236Z,5.97
2024-03-26T01:30:51.130Z,5.99
2024-03-26T01:32:55.569Z,5.99
2024-03-26T01:34:59.927Z,5.96
2024-03-26T01:37:05.129Z,5.92
2024-03-26T01:39:09.594Z,5.92
2024-03-26T01:41:13.985Z,5.91
2024-03-26T01:43:18.416Z,5.88
2024-03-26T01:45:22.814Z,5.84
2024-03-26T01:47:27.794Z,5.81
2024-03-26T01:49:34.272Z,5.82
2024-03-26T01:51:41.458Z,5.83
2024-03-26T01:53:46.233Z,5.81
2024-03-26T01:55:51.419Z,5.80
2024-03-26T01:57:56.019Z,5.77
2024-03-26T02:00:00.502Z,5.75
2024-03-26T02:02:04.989Z,5.72
2024-03-26T02:04:09.502Z,5.67
2024-03-26T02:06:13.985Z,5.65
2024-03-26T02:08:18.875Z,5.64
2024-03-26T02:10:23.323Z,5.63
2024-03-26T02:12:27.930Z,5.62
2024-03-26T02:14:32.366Z,5.59
2024-03-26T02:16:36.731Z,5.56
2024-03-26T02:18:41.113Z,5.53
2024-03-26T02:20:45.846Z,5.51
2024-03-26T02:22:55.800Z,5.48
2024-03-26T02:25:00.436Z,5.45
2024-03-26T02:27:04.940Z,5.41
2024-03-26T02:29:09.346Z,5.38
2024-03-26T02:31:13.767Z,5.33
2024-03-26T02:33:18.311Z,5.29
2024-03-26T02:35:22.754Z,5.26
2024-03-26T02:37:27.348Z,5.23
2024-03-26T02:39:31.753Z,5.21
2024-03-26T02:41:36.573Z,5.17
2024-03-26T02:43:42.906Z,5.17
2024-03-26T02:45:47.383Z,5.15
2024-03-26T02:47:51.734Z,5.13
2024-03-26T02:49:58.833Z,5.11
2024-03-26T02:52:03.297Z,5.08
2024-03-26T02:54:07.790Z,5.05
2024-03-26T02:56:12.132Z,5.03
2024-03-26T02:58:16.490Z,5.02
2024-03-26T03:00:21.148Z,4.98
2024-03-26T03:02:28.518Z,4.97
2024-03-26T03:04:32.906Z,4.95
2024-03-26T03:06:37.452Z,4.94
2024-03-26T03:08:41.845Z,4.93
2024-03-26T03:10:46.195Z,4.92
2024-03-26T03:12:50.558Z,4.90
2024-03-26T03:14:54.927Z,4.89
2024-03-26T03:16:59.267Z,4.87
2024-03-26T03:19:03.687Z,4.88
2024-03-26T03:21:08.087Z,4.88
2024-03-26T03:23:12.501Z,4.89
2024-03-26T03:25:16.892Z,4.88
2024-03-26T03:27:21.278Z,4.89
2024-03-26T03:29:25.699Z,4.89
2024-03-26T03:31:30.170Z,4.90
2024-03-26T03:33:34.580Z,4.89
2024-03-26T03:35:40.632Z,4.89
2024-03-26T03:37:44.980Z,4.88
2024-03-26T03:39:49.490Z,4.88
2024-03-26T03:41:53.863Z,4.88
2024-03-26T03:43:58.181Z,4.86
2024-03-26T03:46:05.382Z,4.87
2024-03-26T03:48:10.163Z,4.86
2024-03-26T03:50:14.624Z,4.86
2024-03-26T03:52:19.050Z,4.85
2024-03-26T03:54:23.600Z,4.85
2024-03-26T03:56:27.959Z,4.83
2024-03-26T03:58:32.323Z,4.82
2024-03-26T04:00:36.887Z,4.79
2024-03-26T04:02:41.324Z,4.79
2024-03-26T04:04:46.629Z,4.76
2024-03-26T04:06:51.028Z,4.73
2024-03-26T04:08:55.400Z,4.70
2024-03-26T04:11:01.016Z,4.69
2024-03-26T04:13:05.630Z,4.70
2024-03-26T04:15:10.785Z,4.70
2024-03-26T04:17:15.113Z,4.67
2024-03-26T04:19:19.498Z,4.67
2024-03-26T04:21:23.935Z,4.67
2024-03-26T04:23:28.282Z,4.67
2024-03-26T04:25:32.645Z,4.67
2024-03-26T04:27:37.105Z,4.65
2024-03-26T04:29:41.552Z,4.65
2024-03-26T04:31:45.865Z,4.62
2024-03-26T04:33:50.368Z,4.60
2024-03-26T04:35:54.826Z,4.58
2024-03-26T04:37:59.217Z,4.57
2024-03-26T04:40:03.877Z,4.57
2024-03-26T04:42:08.219Z,4.54
2024-03-26T04:44:12.609Z,4.52
2024-03-26T04:46:17.017Z,4.50
2024-03-26T04:48:21.430Z,4.49
2024-03-26T04:50:25.912Z,4.49
2024-03-26T04:52:30.303Z,4.49
2024-03-26T04:54:35.922Z,4.49
2024-03-26T04:56:40.258Z,4.49
2024-03-26T04:58:45.314Z,4.50
2024-03-26T05:00:51.277Z,4.52
2024-03-26T05:02:55.573Z,4.53
2024-03-26T05:05:00.147Z,4.54
2024-03-26T05:07:04.504Z,4.57
2024-03-26T05:09:08.904Z,4.59
2024-03-26T05:11:13.226Z,4.60
2024-03-26T05:13:17.679Z,4.62
2024-03-26T05:15:22.015Z,4.63
2024-03-26T05:17:26.382Z,4.65
2024-03-26T05:19:30.811Z,4.66
2024-03-26T05:21:35.133Z,4.68
2024-03-26T05:23:39.556Z,4.71
2024-03-26T05:25:43.930Z,4.74
2024-03-26T05:27:48.340Z,4.76
2024-03-26T05:29:52.753Z,4.78
2024-03-26T05:31:58.355Z,4.81
2024-03-26T05:34:02.847Z,4.84
2024-03-26T05:36:08.076Z,4.88
2024-03-26T05:38:12.407Z,4.95
2024-03-26T05:40:17.157Z,5.00
2024-03-26T05:42:21.983Z,5.04
2024-03-26T05:44:26.639Z,5.08
2024-03-26T05:46:31.059Z,5.11
2024-03-26T05:48:35.419Z,5.13
2024-03-26T05:50:39.774Z,5.15
2024-03-26T05:52:44.147Z,5.18
2024-03-26T05:54:48.537Z,5.23
2024-03-26T05:56:52.871Z,5.29
2024-03-26T05:58:57.369Z,5.33
2024-03-26T06:01:06.116Z,5.35
2024-03-26T06:03:10.467Z,5.38
2024-03-26T06:05:14.890Z,5.40
2024-03-26T06:07:19.297Z,5.43
2024-03-26T06:09:23.662Z,5.47
2024-03-26T06:11:28.059Z,5.51
2024-03-26T06:13:35.388Z,5.54
2024-03-26T06:15:39.818Z,5.61
2024-03-26T06:17:44.171Z,5.68
2024-03-26T06:19:49.772Z,5.73
2024-03-26T06:21:54.157Z,5.79
2024-03-26T06:23:58.544Z,5.85
2024-03-26T06:26:02.997Z,5.92
2024-03-26T06:28:08.000Z,5.99
2024-03-26T06:30:13.934Z,6.05
2024-03-26T06:32:18.312Z,6.09
2024-03-26T06:34:22.745Z,6.14
2024-03-26T06:36:27.143Z,6.17
2024-03-26T06:38:31.566Z,6.22
2024-03-26T06:40:36.561Z,6.29
2024-03-26T06:42:41.075Z,6.35
2024-03-26T06:44:45.489Z,6.40
2024-03-26T06:46:50.034Z,6.45
2024-03-26T06:48:54.415Z,6.52
2024-03-26T06:50:58.790Z,6.58
2024-03-26T06:53:03.255Z,6.65
2024-03-26T06:55:09.057Z,6.74
2024-03-26T06:57:13.543Z,6.81
2024-03-26T06:59:17.901Z,6.89
2024-03-26T07:01:22.245Z,6.96
2024-03-26T07:03:26.648Z,7.07
2024-03-26T07:05:31.059Z,7.16
2024-03-26T07:07:37.920Z,7.24
2024-03-26T07:09:42.618Z,7.31
2024-03-26T07:11:47.017Z,7.40
2024-03-26T07:13:51.612Z,7.48
2024-03-26T07:15:56.038Z,7.55
2024-03-26T07:18:03.454Z,7.68
2024-03-26T07:20:09.624Z,7.76
2024-03-26T07:22:14.189Z,7.88
2024-03-26T07:24:18.694Z,7.95
2024-03-26T07:26:23.182Z,8.05
2024-03-26T07:28:27.592Z,8.12
2024-03-26T07:30:32.119Z,8.22
2024-03-26T07:32:36.576Z,8.31
2024-03-26T07:34:41.011Z,8.42
2024-03-26T07:36:45.502Z,8.50
2024-03-26T07:38:49.952Z,8.61
2024-03-26T07:40:54.535Z,8.71
2024-03-26T07:43:01.405Z,8.82
2024-03-26T07:45:09.744Z,8.91
2024-03-26T07:47:14.480Z,9.00
2024-03-26T07:49:19.296Z,9.08
2024-03-26T07:51:25.896Z,9.17
2024-03-26T07:53:30.994Z,9.25
2024-03-26T07:55:35.445Z,9.30
2024-03-26T07:57:40.084Z,9.37
2024-03-26T07:59:44.516Z,9.47
2024-03-26T08:01:49.139Z,9.54
2024-03-26T08:03:53.723Z,9.61
2024-03-26T08:05:58.475Z,9.71
2024-03-26T08:08:03.032Z,9.81
2024-03-26T08:10:09.384Z,9.91
2024-03-26T08:12:13.910Z,10.00
2024-03-26T08:14:18.498Z,10.07
2024-03-26T08:16:23.044Z,10.14
2024-03-26T08:18:27.733Z,10.22
2024-03-26T08:20:32.356Z,10.32
2024-03-26T08:22:37.444Z,10.39
2024-03-26T08:24:42.217Z,10.48
2024-03-26T08:26:46.788Z,10.59
2024-03-26T08:28:51.251Z,10.68
2024-03-26T08:30:55.762Z,10.80
2024-03-26T08:33:00.349Z,10.91
2024-03-26T08:35:05.234Z,11.01
2024-03-26T08:37:09.569Z,11.13
2024-03-26T08:39:14.294Z,11.21
2024-03-26T08:41:18.825Z,11.29
2024-03-26T08:43:23.296Z,11.40
2024-03-26T08:45:27.867Z,11.49
2024-03-26T08:47:32.390Z,11.59
2024-03-26T08:49:37.137Z,11.70
2024-03-26T08:51:41.563Z,11.80
2024-03-26T08:53:45.983Z,11.90
2024-03-26T08:55:50.508Z,11.97
2024-03-26T08:57:55.101Z,12.02
2024-03-26T08:59:59.685Z,12.06
2024-03-26T09:02:04.148Z,12.11
2024-03-26T09:04:08.534Z,12.12
2024-03-26T09:06:13.012Z,12.14
2024-03-26T09:08:17.435Z,12.20
2024-03-26T09:10:24.923Z,12.26
2024-03-26T09:12:30.378Z,12.34
2024-03-26T09:14:36.490Z,12.41
2024-03-26T09:16:41.178Z,12.49
2024-03-26T09:18:45.869Z,12.59
2024-03-26T09:20:50.527Z,12.70
2024-03-26T09:22:55.372Z,12.81
2024-03-26T09:25:00.136Z,12.88
2024-03-26T09:27:04.637Z,12.92
2024-03-26T09:29:09.258Z,12.97
2024-03-26T09:31:13.799Z,13.04
2024-03-26T09:33:18.416Z,13.10
2024-03-26T09:35:25.847Z,13.17
2024-03-26T09:37:31.612Z,13.23
2024-03-26T09:39:36.853Z,13.27
2024-03-26T09:41:42.684Z,13.31
2024-03-26T09:43:47.313Z,13.35
2024-03-26T09:45:52.652Z,13.38
2024-03-26T09:47:57.242Z,13.40
2024-03-26T09:50:03.149Z,13.42
2024-03-26T09:52:10.624Z,13.45
2024-03-26T09:54:16.423Z,13.51
2024-03-26T09:56:22.760Z,13.63
2024-03-26T09:58:27.550Z,13.75
2024-03-26T10:00:34.778Z,13.86
2024-03-26T10:02:39.310Z,13.96
2024-03-26T10:04:44.307Z,14.07
2024-03-26T10:06:48.983Z,14.17
2024-03-26T10:08:56.808Z,14.25
2024-03-26T10:11:01.586Z,14.33
2024-03-26T10:13:07.824Z,14.38
2024-03-26T10:15:12.689Z,14.47
2024-03-26T10:17:17.255Z,14.58
2024-03-26T10:19:21.741Z,14.67
2024-03-26T10:21:26.382Z,14.76
2024-03-26T10:23:30.919Z,14.85
2024-03-26T10:25:35.638Z,14.93
2024-03-26T10:27:40.628Z,15.00
2024-03-26T10:29:45.295Z,15.06
2024-03-26T10:31:51.564Z,15.13
2024-03-26T10:33:56.839Z,15.22
2024-03-26T10:36:04.766Z,15.31
2024-03-26T10:38:17.016Z,15.39
2024-03-26T10:40:29.041Z,15.47
2024-03-26T10:42:40.378Z,15.54
2024-03-26T10:44:45.064Z,15.57
2024-03-26T10:46:50.304Z,15.60
2024-03-26T10:49:01.296Z,15.65
2024-03-26T10:51:07.384Z,15.71
2024-03-26T10:53:13.498Z,15.76
2024-03-26T10:55:18.764Z,15.81
2024-03-26T10:57:23.994Z,15.86
2024-03-26T10:59:28.740Z,15.91
2024-03-26T11:01:35.094Z,15.98
2024-03-26T11:03:39.878Z,16.04
2024-03-26T11:05:45.739Z,16.09
2024-03-26T11:07:50.858Z,16.13
2024-03-26T11:10:11.257Z,16.14
2024-03-26T11:12:21.712Z,16.12
2024-03-26T11:14:27.528Z,16.12
2024-03-26T11:16:39.231Z,16.12
2024-03-26T11:18:46.451Z,16.19
2024-03-26T11:20:51.432Z,16.24
2024-03-26T11:22:59.690Z,16.30
2024-03-26T11:25:06.909Z,16.35
2024-03-26T11:27:12.113Z,16.42
2024-03-26T11:29:17.548Z,16.49
2024-03-26T11:31:24.537Z,16.56
2024-03-26T11:33:30.243Z,16.62
2024-03-26T11:35:36.002Z,16.67
2024-03-26T11:37:41.433Z,16.68
2024-03-26T11:39:47.363Z,16.68
2024-03-26T11:41:53.130Z,16.64
2024-03-26T11:43:58.217Z,16.58
2024-03-26T11:46:02.805Z,16.50
2024-03-26T11:48:10.670Z,16.44
2024-03-26T11:50:15.108Z,16.38
2024-03-26T11:52:20.186Z,16.38
2024-03-26T11:54:25.500Z,16.41
2024-03-26T11:56:31.010Z,16.44
2024-03-26T11:58:37.864Z,16.46
2024-03-26T12:00:42.888Z,16.49
2024-03-26T12:02:47.442Z,16.51
2024-03-26T12:04:51.938Z,16.55
2024-03-26T12:06:56.680Z,16.59
2024-03-26T12:09:02.000Z,16.65
2024-03-26T12:11:06.684Z,16.71
2024-03-26T12:13:11.294Z,16.72
2024-03-26T12:15:16.709Z,16.76
2024-03-26T12:17:22.443Z,16.80
2024-03-26T12:19:28.841Z,16.79
2024-03-26T12:21:33.623Z,16.79
2024-03-26T12:23:38.105Z,16.76
2024-03-26T12:25:45.840Z,16.75
2024-03-26T12:27:50.469Z,16.71
2024-03-26T12:29:55.118Z,16.68
2024-03-26T12:32:00.021Z,16.70
2024-03-26T12:34:11.648Z,16.74
2024-03-26T12:36:16.918Z,16.85
2024-03-26T12:38:21.890Z,16.98
2024-03-26T12:40:26.675Z,17.13
2024-03-26T12:42:31.239Z,17.30
2024-03-26T12:44:36.893Z,17.45
2024-03-26T12:46:42.007Z,17.60
2024-03-26T12:48:46.718Z,17.75
2024-03-26T12:50:51.646Z,17.94
2024-03-26T12:52:56.164Z,18.12
2024-03-26T12:55:00.738Z,18.26
2024-03-26T12:57:05.578Z,18.38
2024-03-26T12:59:10.465Z,18.46
2024-03-26T13:01:14.952Z,18.51
2024-03-26T13:03:22.299Z,18.56
2024-03-26T13:05:27.145Z,18.58
2024-03-26T13:07:31.717Z,18.60
2024-03-26T13:09:36.238Z,18.64
2024-03-26T13:11:40.722Z,18.62
2024-03-26T13:13:46.512Z,18.61
2024-03-26T13:15:50.903Z,18.63
2024-03-26T13:17:55.497Z,18.64
2024-03-26T13:20:00.088Z,18.63
2024-03-26T13:22:07.133Z,18.61
2024-03-26T13:24:11.703Z,18.64
2024-03-26T13:26:16.372Z,18.63
2024-03-26T13:28:20.863Z,18.57
2024-03-26T13:30:30.599Z,18.52
2024-03-26T13:32:42.086Z,18.46
2024-03-26T13:34:46.525Z,18.39
2024-03-26T13:36:50.946Z,18.34
2024-03-26T13:38:55.623Z,18.27
2024-03-26T13:41:00.360Z,18.19
2024-03-26T13:43:05.486Z,18.10
2024-03-26T13:45:10.941Z,17.99
2024-03-26T13:47:16.798Z,17.88
2024-03-26T13:49:21.585Z,17.77
2024-03-26T13:51:28.488Z,17.70
2024-03-26T13:53:33.110Z,17.60
2024-03-26T13:55:37.714Z,17.50
2024-03-26T13:57:42.225Z,17.42
2024-03-26T13:59:47.011Z,17.37
2024-03-26T14:01:51.452Z,17.36
2024-03-26T14:03:55.987Z,17.35
2024-03-26T14:06:00.830Z,17.35
2024-03-26T14:08:06.141Z,17.34
2024-03-26T14:10:11.327Z,17.32
2024-03-26T14:12:15.829Z,17.30
2024-03-26T14:14:20.365Z,17.32
2024-03-26T14:16:24.963Z,17.37
2024-03-26T14:18:29.494Z,17.42
2024-03-26T14:20:33.975Z,17.51
2024-03-26T14:22:38.697Z,17.59
2024-03-26T14:24:43.189Z,17.65
2024-03-26T14:26:47.676Z,17.69
2024-03-26T14:28:52.135Z,17.76
2024-03-26T14:30:56.527Z,17.80
2024-03-26T14:33:00.980Z,17.84
2024-03-26T14:35:06.597Z,17.85
2024-03-26T14:37:11.223Z,17.83
2024-03-26T14:39:15.734Z,17.77
2024-03-26T14:41:20.228Z,17.70
2024-03-26T14:43:24.799Z,17.62
2024-03-26T14:45:30.234Z,17.53
2024-03-26T14:47:34.697Z,17.44
2024-03-26T14:49:39.188Z,17.35
2024-03-26T14:51:44.301Z,17.28
2024-03-26T14:53:48.723Z,17.21
2024-03-26T14:55:53.329Z,17.14
2024-03-26T14:57:57.869Z,17.06
2024-03-26T15:00:04.017Z,17.01
2024-03-26T15:02:09.724Z,16.94
2024-03-26T15:04:14.308Z,16.89
2024-03-26T15:06:18.797Z,16.84
2024-03-26T15:08:24.094Z,16.81
2024-03-26T15:10:28.729Z,16.77
2024-03-26T15:12:34.423Z,16.73
2024-03-26T15:14:38.904Z,16.68
2024-03-26T15:16:43.472Z,16.67
2024-03-26T15:18:48.106Z,16.63
2024-03-26T15:20:52.986Z,16.59
2024-03-26T15:22:58.281Z,16.55
2024-03-26T15:25:02.887Z,16.52
2024-03-26T15:27:07.457Z,16.48
2024-03-26T15:29:12.251Z,16.47
2024-03-26T15:31:16.781Z,16.45
2024-03-26T15:33:21.331Z,16.43
2024-03-26T15:35:25.784Z,16.42
2024-03-26T15:37:30.249Z,16.38
2024-03-26T15:39:34.669Z,16.35
2024-03-26T15:41:39.163Z,16.34
2024-03-26T15:43:45.428Z,16.31
2024-03-26T15:45:49.979Z,16.27
2024-03-26T15:47:54.575Z,16.21
2024-03-26T15:49:59.047Z,16.18
2024-03-26T15:52:03.855Z,16.15
2024-03-26T15:54:11.347Z,16.12
2024-03-26T15:56:15.796Z,16.10
2024-03-26T15:58:20.288Z,16.08
2024-03-26T16:00:24.834Z,16.06
2024-03-26T16:02:29.220Z,16.04
2024-03-26T16:04:36.469Z,16.00
2024-03-26T16:06:43.995Z,15.98
2024-03-26T16:08:48.585Z,15.96
2024-03-26T16:13:05.991Z,15.87
2024-03-26T16:15:11.609Z,15.84
2024-03-26T16:17:16.283Z,15.84
2024-03-26T16:19:20.692Z,15.79
2024-03-26T16:21:25.064Z,15.75
2024-03-26T16:23:29.585Z,15.72
2024-03-26T16:25:33.996Z,15.67
2024-03-26T16:27:38.407Z,15.61
2024-03-26T16:29:42.832Z,15.57
2024-03-26T16:31:47.242Z,15.51
2024-03-26T16:33:51.740Z,15.48
2024-03-26T16:36:03.587Z,15.44
2024-03-26T16:38:08.180Z,15.37
2024-03-26T16:40:14.726Z,15.33
2024-03-26T16:42:19.120Z,15.29
2024-03-26T16:44:23.683Z,15.24
2024-03-26T16:46:28.202Z,15.20
2024-03-26T16:48:32.697Z,15.15
2024-03-26T16:50:37.168Z,15.11
2024-03-26T16:52:41.587Z,15.07
2024-03-26T16:54:48.789Z,15.03
2024-03-26T16:56:53.128Z,15.00
2024-03-26T16:58:57.581Z,14.95
2024-03-26T17:01:01.924Z,14.92
2024-03-26T17:03:06.606Z,14.88
2024-03-26T17:05:11.713Z,14.84
2024-03-26T17:07:16.095Z,14.79
2024-03-26T17:09:20.736Z,14.74
2024-03-26T17:11:28.236Z,14.70
2024-03-26T17:13:34.719Z,14.65
2024-03-26T17:15:39.124Z,14.61
2024-03-26T17:17:43.586Z,14.58
2024-03-26T17:19:48.101Z,14.53
2024-03-26T17:21:52.500Z,14.50
2024-03-26T17:23:56.920Z,14.46
2024-03-26T17:26:01.481Z,14.44
2024-03-26T17:28:06.769Z,14.43
2024-03-26T17:30:13.036Z,14.40
2024-03-26T17:32:17.506Z,14.37
2024-03-26T17:34:21.937Z,14.35
2024-03-26T17:36:26.426Z,14.33
2024-03-26T17:38:30.853Z,14.31
2024-03-26T17:40:35.297Z,14.28
2024-03-26T17:42:39.842Z,14.25
2024-03-26T17:44:44.189Z,14.24
2024-03-26T17:46:48.614Z,14.21
2024-03-26T17:48:53.056Z,14.19
2024-03-26T17:50:58.711Z,14.17
2024-03-26T17:53:03.672Z,14.15
2024-03-26T17:55:09.620Z,14.15
2024-03-26T17:57:14.666Z,14.14
2024-03-26T17:59:19.054Z,14.13
2024-03-26T18:01:23.533Z,14.11
2024-03-26T18:03:27.946Z,14.10
2024-03-26T18:05:36.839Z,14.10
2024-03-26T18:07:43.952Z,14.08
2024-03-26T18:09:48.371Z,14.05
2024-03-26T18:11:54.682Z,14.05
2024-03-26T18:13:59.139Z,14.03
2024-03-26T18:16:05.524Z,14.04
2024-03-26T18:18:10.025Z,14.02
2024-03-26T18:20:14.992Z,14.01
2024-03-26T18:22:19.801Z,13.99
2024-03-26T18:24:25.568Z,13.97
2024-03-26T18:26:30.606Z,13.98
2024-03-26T18:28:35.998Z,13.96
2024-03-26T18:30:42.202Z,13.94
2024-03-26T18:32:47.563Z,13.94
2024-03-26T18:34:56.750Z,13.94
2024-03-26T18:37:04.974Z,13.93
2024-03-26T18:39:10.728Z,13.93
2024-03-26T18:41:16.126Z,13.91
2024-03-26T18:43:22.631Z,13.91
2024-03-26T18:45:31.122Z,13.91
2024-03-26T18:47:37.441Z,13.91
2024-03-26T18:49:42.914Z,13.90
2024-03-26T18:51:47.804Z,13.89
2024-03-26T18:53:53.204Z,13.88
2024-03-26T18:56:00.978Z,13.87
2024-03-26T18:58:08.262Z,13.87
2024-03-26T19:00:14.943Z,13.85
2024-03-26T19:02:20.551Z,13.84
2024-03-26T19:04:26.223Z,13.82
2024-03-26T19:06:30.797Z,13.82
2024-03-26T19:08:36.186Z,13.80
2024-03-26T19:10:42.676Z,13.79
2024-03-26T19:12:48.288Z,13.79
2024-03-26T19:14:54.310Z,13.78
2024-03-26T19:16:58.965Z,13.76
2024-03-26T19:19:03.977Z,13.76
2024-03-26T19:21:10.368Z,13.74
2024-03-26T19:23:16.585Z,13.75
2024-03-26T19:25:22.584Z,13.73
2024-03-26T19:27:27.437Z,13.72
2024-03-26T19:29:35.185Z,13.68
2024-03-26T19:31:40.492Z,13.66
2024-03-26T19:33:46.334Z,13.63
2024-03-26T19:36:00.484Z,13.60
2024-03-26T19:38:08.811Z,13.56
2024-03-26T19:40:15.982Z,13.54
2024-03-26T19:42:25.033Z,13.52
2024-03-26T19:44:31.029Z,13.50
2024-03-26T19:46:36.573Z,13.47
2024-03-26T19:48:41.976Z,13.43
2024-03-26T19:50:55.006Z,13.39
2024-03-26T19:53:01.731Z,13.36
2024-03-26T19:55:10.712Z,13.33
2024-03-26T19:57:16.619Z,13.29
2024-03-26T19:59:22.753Z,13.25
2024-03-26T20:01:33.474Z,13.24
2024-03-26T20:03:40.423Z,13.21
2024-03-26T20:05:45.700Z,13.18
2024-03-26T20:07:53.571Z,13.15
2024-03-26T20:09:58.116Z,13.12
2024-03-26T20:12:04.232Z,13.09
2024-03-26T20:14:10.532Z,13.07
2024-03-26T20:16:20.125Z,13.05
2024-03-26T20:18:25.461Z,13.03
2024-03-26T20:20:32.245Z,13.01
2024-03-26T20:22:38.372Z,13.00
2024-03-26T20:24:44.684Z,12.99
2024-03-26T20:26:51.733Z,12.95
2024-03-26T20:28:57.732Z,12.92
2024-03-26T20:31:12.179Z,12.88
2024-03-26T20:33:18.088Z,12.84
2024-03-26T20:35:25.066Z,12.81
2024-03-26T20:37:30.305Z,12.77
2024-03-26T20:39:36.802Z,12.73
2024-03-26T20:41:42.698Z,12.71
2024-03-26T20:43:50.131Z,12.68
2024-03-26T20:45:57.367Z,12.66
2024-03-26T20:48:04.048Z,12.63
2024-03-26T20:50:12.794Z,12.59
2024-03-26T20:52:18.935Z,12.55
2024-03-26T20:54:24.207Z,12.52
2024-03-26T20:56:29.904Z,12.51
2024-03-26T20:58:35.774Z,12.49
2024-03-26T21:00:43.198Z,12.49
2024-03-26T21:02:50.848Z,12.48
2024-03-26T21:04:56.646Z,12.49
2024-03-26T21:07:04.161Z,12.48
2024-03-26T21:09:09.370Z,12.49
2024-03-26T21:11:14.453Z,12.50
2024-03-26T21:13:20.148Z,12.52
2024-03-26T21:15:29.117Z,12.55
2024-03-26T21:17:35.446Z,12.56
2024-03-26T21:19:40.149Z,12.57
2024-03-26T21:21:47.398Z,12.59
2024-03-26T21:23:51.967Z,12.61
2024-03-26T21:25:57.045Z,12.62
2024-03-26T21:28:01.895Z,12.63
2024-03-26T21:30:08.207Z,12.66
2024-03-26T21:32:12.772Z,12.66
2024-03-26T21:34:17.292Z,12.67
2024-03-26T21:36:21.886Z,12.67
2024-03-26T21:38:26.364Z,12.67
2024-03-26T21:40:30.956Z,12.67
2024-03-26T21:42:35.386Z,12.65
2024-03-26T21:44:39.786Z,12.64
2024-03-26T21:46:44.763Z,12.63
2024-03-26T21:48:52.478Z,12.63
2024-03-26T21:51:00.451Z,12.62
2024-03-26T21:53:05.168Z,12.63
2024-03-26T21:55:10.388Z,12.63
2024-03-26T21:57:17.762Z,12.63
2024-03-26T21:59:22.222Z,12.58
2024-03-26T22:01:26.614Z,12.55
2024-03-26T22:03:31.032Z,12.50
2024-03-26T22:05:35.483Z,12.47
2024-03-26T22:07:39.935Z,12.43
2024-03-26T22:09:44.702Z,12.42
2024-03-26T22:11:49.043Z,12.40
2024-03-26T22:13:53.478Z,12.38
2024-03-26T22:15:58.207Z,12.39
2024-03-26T22:18:02.712Z,12.36
2024-03-26T22:20:08.899Z,12.34
2024-03-26T22:22:13.494Z,12.32
2024-03-26T22:24:18.048Z,12.31
2024-03-26T22:26:22.513Z,12.30
2024-03-26T22:28:27.085Z,12.29
2024-03-26T22:30:31.496Z,12.30
2024-03-26T22:32:35.958Z,12.27
2024-03-26T22:34:40.381Z,12.25
2024-03-26T22:36:44.858Z,12.24
2024-03-26T22:38:49.373Z,12.23
2024-03-26T22:40:58.324Z,12.20
2024-03-26T22:43:02.997Z,12.18
2024-03-26T22:45:09.326Z,12.18
2024-03-26T22:47:13.794Z,12.17
2024-03-26T22:49:18.599Z,12.16
2024-03-26T22:51:23.109Z,12.17
2024-03-26T22:53:27.546Z,12.16
2024-03-26T22:55:31.998Z,12.15
2024-03-26T22:57:37.646Z,12.13
2024-03-26T22:59:42.172Z,12.10
2024-03-26T23:01:46.663Z,12.09
2024-03-26T23:03:51.250Z,12.09
2024-03-26T23:06:00.090Z,12.07
2024-03-26T23:08:04.923Z,12.07
2024-03-26T23:10:10.382Z,12.07
2024-03-26T23:12:14.882Z,12.08
2024-03-26T23:14:19.513Z,12.07
2024-03-26T23:16:24.690Z,12.07
2024-03-26T23:18:29.329Z,12.07
2024-03-26T23:20:33.763Z,12.06
2024-03-26T23:22:38.626Z,12.05
2024-03-26T23:24:43.022Z,12.03
2024-03-26T23:26:47.446Z,12.03
2024-03-26T23:28:51.895Z,12.03
2024-03-26T23:30:56.345Z,12.01
2024-03-26T23:33:00.819Z,12.02
2024-03-26T23:35:06.331Z,12.01
2024-03-26T23:37:13.320Z,12.00
2024-03-26T23:39:17.974Z,12.00
2024-03-26T23:41:22.447Z,11.99
2024-03-26T23:43:26.863Z,11.98
2024-03-26T23:45:31.285Z,11.95
2024-03-26T23:47:36.243Z,11.94
2024-03-26T23:49:40.734Z,11.95
2024-03-26T23:51:45.239Z,11.94
2024-03-26T23:53:49.669Z,11.94
2024-03-26T23:55:54.192Z,11.92
2024-03-26T23:57:58.598Z,11.93
